createdAt,value
2018-05-24T00:00:58.927Z,66.04
2018-05-24T00:01:59.317Z,66.14
2018-05-24T00:02:58.878Z,65.75
2018-05-24T00:03:58.022Z,66.04
2018-05-24T00:04:58.043Z,66.33
2018-05-24T00:05:58.030Z,66.04
2018-05-24T00:06:58.031Z,66.14
2018-05-24T00:07:58.064Z,66.23
2018-05-24T00:08:58.180Z,66.30
2018-05-24T00:09:58.823Z,66.04
2018-05-24T00:10:58.506Z,66.30
2018-05-24T00:11:58.836Z,66.91
2018-05-24T00:12:59.050Z,66.42
2018-05-24T00:13:58.886Z,66.39
2018-05-24T00:14:58.049Z,66.49
2018-05-24T00:15:58.049Z,67.38
2018-05-24T00:16:58.050Z,67.07
2018-05-24T00:17:58.055Z,66.68
2018-05-24T00:18:58.118Z,67.07
2018-05-24T00:19:58.058Z,66.97
2018-05-24T00:20:58.058Z,67.16
2018-05-24T00:21:58.061Z,67.35
2018-05-24T00:22:58.064Z,67.16
2018-05-24T00:23:58.065Z,67.07
2018-05-24T00:24:58.072Z,67.07
2018-05-24T00:25:58.070Z,67.07
2018-05-24T00:26:58.073Z,66.97
2018-05-24T00:27:58.073Z,66.58
2018-05-24T00:28:58.077Z,66.30
2018-05-24T00:29:58.081Z,66.77
2018-05-24T00:30:58.082Z,66.77
2018-05-24T00:31:58.085Z,66.39
2018-05-24T00:32:58.084Z,67.07
2018-05-24T00:33:58.088Z,67.16
2018-05-24T00:34:58.090Z,67.16
2018-05-24T00:35:58.091Z,66.77
2018-05-24T00:36:58.094Z,67.16
2018-05-24T00:37:58.095Z,67.07
2018-05-24T00:38:58.099Z,66.97
2018-05-24T00:39:58.105Z,67.16
2018-05-24T00:40:58.104Z,66.97
2018-05-24T00:41:58.108Z,66.87
2018-05-24T00:42:58.156Z,67.07
2018-05-24T00:43:58.108Z,66.68
2018-05-24T00:44:58.111Z,66.97
2018-05-24T00:45:58.113Z,67.25
2018-05-24T00:46:58.115Z,66.68
2018-05-24T00:47:58.117Z,66.49
2018-05-24T00:48:58.123Z,67.25
2018-05-24T00:49:58.187Z,67.07
2018-05-24T00:50:58.124Z,67.07
2018-05-24T00:51:58.128Z,67.16
2018-05-24T00:52:58.129Z,67.25
2018-05-24T00:53:58.132Z,67.16
2018-05-24T00:54:58.139Z,66.68
2018-05-24T00:55:58.166Z,67.07
2018-05-24T00:56:58.137Z,67.07
2018-05-24T00:57:58.155Z,66.39
2018-05-24T00:58:58.144Z,66.77
2018-05-24T00:59:58.147Z,67.25
2018-05-24T01:00:58.154Z,67.25
2018-05-24T01:01:58.150Z,67.07
2018-05-24T01:02:58.152Z,67.35
2018-05-24T01:03:58.151Z,67.07
2018-05-24T01:04:58.155Z,67.16
2018-05-24T01:05:58.158Z,67.07
2018-05-24T01:06:58.161Z,67.16
2018-05-24T01:07:58.176Z,66.68
2018-05-24T01:08:58.165Z,66.77
2018-05-24T01:09:58.170Z,67.07
2018-05-24T01:10:58.173Z,67.16
2018-05-24T01:11:58.172Z,67.83
2018-05-24T01:12:58.174Z,67.64
2018-05-24T01:13:58.176Z,67.74
2018-05-24T01:14:58.182Z,67.74
2018-05-24T01:15:58.182Z,67.74
2018-05-24T01:16:58.185Z,67.83
2018-05-24T01:17:58.184Z,67.35
2018-05-24T01:18:58.187Z,67.45
2018-05-24T01:19:58.190Z,67.64
2018-05-24T01:20:58.193Z,67.54
2018-05-24T01:21:58.201Z,67.16
2018-05-24T01:22:58.198Z,67.07
2018-05-24T01:23:58.198Z,67.64
2018-05-24T01:24:58.202Z,67.45
2018-05-24T01:25:58.204Z,67.64
2018-05-24T01:26:58.211Z,67.64
2018-05-24T01:27:58.208Z,67.25
2018-05-24T01:28:58.211Z,67.25
2018-05-24T01:29:58.214Z,67.64
2018-05-24T01:30:58.215Z,67.64
2018-05-24T01:31:58.216Z,67.35
2018-05-24T01:32:58.221Z,67.83
2018-05-24T01:33:58.219Z,67.25
2018-05-24T01:34:58.224Z,67.93
2018-05-24T01:35:58.226Z,68.02
2018-05-24T01:36:58.225Z,67.93
2018-05-24T01:37:58.230Z,68.41
2018-05-24T01:38:58.231Z,68.28
2018-05-24T01:39:58.235Z,68.02
2018-05-24T01:40:58.249Z,68.31
2018-05-24T01:41:58.239Z,68.51
2018-05-24T01:42:58.258Z,68.66
2018-05-24T01:43:58.242Z,69.24
2018-05-24T01:44:58.243Z,69.24
2018-05-24T01:45:58.245Z,68.66
2018-05-24T01:46:58.249Z,69.14
2018-05-24T01:47:58.252Z,68.95
2018-05-24T01:48:58.253Z,69.05
2018-05-24T01:49:58.255Z,69.24
2018-05-24T01:50:58.255Z,69.43
2018-05-24T01:51:58.258Z,69.34
2018-05-24T01:52:58.262Z,69.34
2018-05-24T01:53:58.261Z,69.62
2018-05-24T01:54:58.263Z,69.91
2018-05-24T01:55:58.269Z,69.91
2018-05-24T01:56:58.266Z,69.72
2018-05-24T01:57:58.271Z,69.53
2018-05-24T01:58:58.271Z,69.81
2018-05-24T01:59:58.272Z,69.72
2018-05-24T02:00:58.275Z,70.01
2018-05-24T02:01:58.280Z,69.91
2018-05-24T02:02:58.327Z,70.58
2018-05-24T02:03:58.282Z,70.78
2018-05-24T02:04:58.637Z,70.78
2018-05-24T02:05:58.291Z,70.68
2018-05-24T02:06:59.457Z,70.58
2018-05-24T02:07:58.496Z,70.39
2018-05-24T02:08:58.385Z,70.20
2018-05-24T02:10:58.339Z,70.20
2018-05-24T02:12:19.521Z,70.20
2018-05-24T02:12:58.327Z,70.68
2018-05-24T02:13:58.339Z,70.68
2018-05-24T02:14:58.323Z,70.58
2018-05-24T02:16:19.330Z,70.29
2018-05-24T02:16:58.347Z,70.58
2018-05-24T02:17:58.328Z,70.49
2018-05-24T02:18:58.329Z,70.78
2018-05-24T02:19:58.338Z,70.39
2018-05-24T02:20:58.331Z,70.97
2018-05-24T02:22:19.348Z,70.87
2018-05-24T02:22:58.343Z,70.58
2018-05-24T02:23:58.341Z,70.97
2018-05-24T02:24:58.340Z,70.97
2018-05-24T02:25:58.344Z,70.58
2018-05-24T02:26:58.346Z,70.58
2018-05-24T02:28:19.355Z,71.45
2018-05-24T02:28:58.407Z,70.68
2018-05-24T02:29:58.349Z,71.06
2018-05-24T02:30:58.367Z,70.68
2018-05-24T02:31:58.355Z,70.49
2018-05-24T02:32:58.355Z,70.49
2018-05-24T02:34:19.369Z,70.68
2018-05-24T02:34:58.362Z,71.06
2018-05-24T02:35:58.534Z,70.97
2018-05-24T02:36:58.374Z,70.58
2018-05-24T02:37:58.374Z,71.16
2018-05-24T02:38:58.374Z,70.78
2018-05-24T02:40:19.382Z,71.55
2018-05-24T02:40:58.375Z,71.16
2018-05-24T02:41:58.411Z,71.25
2018-05-24T02:42:58.386Z,71.16
2018-05-24T02:43:58.379Z,71.16
2018-05-24T02:44:58.397Z,71.16
2018-05-24T02:46:19.395Z,71.55
2018-05-24T02:46:58.385Z,71.35
2018-05-24T02:47:58.384Z,71.45
2018-05-24T02:48:58.389Z,72.02
2018-05-24T02:49:58.389Z,71.83
2018-05-24T02:50:58.393Z,71.64
2018-05-24T02:52:19.402Z,71.73
2018-05-24T02:52:58.395Z,71.93
2018-05-24T02:53:58.401Z,71.83
2018-05-24T02:54:58.400Z,72.12
2018-05-24T02:55:58.403Z,72.28
2018-05-24T02:56:58.403Z,72.60
2018-05-24T02:58:19.426Z,72.66
2018-05-24T02:58:58.408Z,72.69
2018-05-24T02:59:58.407Z,72.47
2018-05-24T03:00:58.423Z,72.66
2018-05-24T03:01:58.415Z,72.85
2018-05-24T03:02:58.419Z,73.24
2018-05-24T03:04:19.440Z,73.33
2018-05-24T03:04:58.425Z,73.62
2018-05-24T03:05:58.500Z,73.81
2018-05-24T03:06:58.431Z,73.62
2018-05-24T03:07:58.429Z,73.91
2018-05-24T03:08:58.426Z,74.19
2018-05-24T03:10:19.486Z,74.58
2018-05-24T03:10:58.431Z,74.48
2018-05-24T03:11:58.432Z,74.77
2018-05-24T03:12:58.437Z,74.77
2018-05-24T03:13:58.438Z,74.48
2018-05-24T03:14:58.438Z,74.58
2018-05-24T03:16:19.572Z,74.58
2018-05-24T03:16:58.441Z,75.15
2018-05-24T03:17:58.449Z,74.96
2018-05-24T03:18:58.464Z,74.77
2018-05-24T03:19:58.445Z,75.06
2018-05-24T03:20:58.450Z,75.35
2018-05-24T03:22:19.461Z,75.15
2018-05-24T03:22:58.448Z,75.92
2018-05-24T03:23:58.455Z,75.63
2018-05-24T03:24:58.453Z,75.82
2018-05-24T03:25:58.454Z,75.54
2018-05-24T03:26:58.454Z,76.21
2018-05-24T03:28:19.463Z,76.75
2018-05-24T03:28:58.457Z,76.40
2018-05-24T03:29:58.461Z,76.75
2018-05-24T03:30:58.463Z,77.46
2018-05-24T03:31:58.469Z,77.17
2018-05-24T03:32:58.464Z,77.08
2018-05-24T03:34:19.475Z,77.80
2018-05-24T03:34:58.466Z,78.38
2018-05-24T03:35:58.472Z,78.19
2018-05-24T03:36:58.471Z,78.96
2018-05-24T03:37:58.469Z,79.53
2018-05-24T03:38:58.474Z,79.82
2018-05-24T03:40:19.481Z,79.44
2018-05-24T03:40:58.489Z,79.82
2018-05-24T03:41:58.478Z,80.01
2018-05-24T03:42:58.476Z,80.11
2018-05-24T03:43:58.485Z,80.78
2018-05-24T03:44:58.479Z,80.87
2018-05-24T03:46:19.495Z,81.35
2018-05-24T03:46:58.482Z,81.45
2018-05-24T03:47:58.485Z,81.54
2018-05-24T03:48:58.485Z,81.07
2018-05-24T03:49:58.493Z,80.87
2018-05-24T03:50:58.494Z,81.45
2018-05-24T03:52:19.502Z,82.03
2018-05-24T03:52:58.490Z,82.31
2018-05-24T03:53:58.491Z,81.74
2018-05-24T03:54:58.492Z,81.84
2018-05-24T03:55:58.491Z,81.64
2018-05-24T03:56:58.492Z,81.74
2018-05-24T03:58:19.505Z,81.93
2018-05-24T03:58:58.494Z,81.45
2018-05-24T03:59:58.497Z,81.64
2018-05-24T04:00:58.500Z,82.12
2018-05-24T04:01:58.500Z,81.45
2018-05-24T04:02:58.511Z,82.03
2018-05-24T04:04:19.513Z,81.84
2018-05-24T04:04:58.505Z,82.41
2018-05-24T04:05:58.505Z,81.54
2018-05-24T04:06:58.505Z,81.54
2018-05-24T04:07:58.507Z,81.54
2018-05-24T04:08:58.509Z,82.03
2018-05-24T04:10:19.519Z,82.21
2018-05-24T04:10:58.516Z,82.03
2018-05-24T04:11:58.548Z,82.41
2018-05-24T04:12:58.512Z,82.03
2018-05-24T04:13:58.519Z,82.41
2018-05-24T04:14:58.527Z,82.31
2018-05-24T04:16:19.557Z,82.12
2018-05-24T04:16:58.522Z,82.03
2018-05-24T04:17:58.549Z,82.21
2018-05-24T04:18:58.525Z,82.70
2018-05-24T04:19:58.528Z,82.60
2018-05-24T04:20:58.523Z,82.70
2018-05-24T04:22:19.535Z,82.79
2018-05-24T04:22:58.526Z,82.41
2018-05-24T04:23:58.525Z,82.98
2018-05-24T04:24:58.527Z,83.27
2018-05-24T04:25:58.532Z,83.27
2018-05-24T04:26:58.554Z,83.47
2018-05-24T04:28:19.540Z,83.37
2018-05-24T04:28:58.540Z,83.94
2018-05-24T04:29:58.534Z,83.47
2018-05-24T04:30:58.553Z,84.14
2018-05-24T04:31:58.539Z,83.85
2018-05-24T04:32:58.574Z,83.94
2018-05-24T04:34:19.548Z,83.85
2018-05-24T04:34:58.545Z,83.94
2018-05-24T04:35:58.561Z,83.85
2018-05-24T04:36:58.553Z,83.85
2018-05-24T04:37:58.547Z,83.65
2018-05-24T04:38:58.548Z,84.33
2018-05-24T04:40:19.562Z,83.65
2018-05-24T04:40:58.569Z,84.33
2018-05-24T04:41:58.568Z,84.42
2018-05-24T04:42:58.553Z,84.04
2018-05-24T04:43:58.573Z,84.52
2018-05-24T04:44:58.556Z,84.14
2018-05-24T04:46:19.678Z,84.33
2018-05-24T04:46:58.558Z,84.81
2018-05-24T04:47:58.785Z,84.52
2018-05-24T04:48:58.559Z,84.81
2018-05-24T04:49:58.564Z,85.19
2018-05-24T04:50:58.566Z,85.58
2018-05-24T04:52:19.573Z,85.38
2018-05-24T04:52:58.569Z,85.58
2018-05-24T04:53:58.576Z,86.92
2018-05-24T04:54:58.571Z,86.34
2018-05-24T04:55:58.593Z,87.01
2018-05-24T04:56:58.876Z,87.11
2018-05-24T04:58:19.583Z,87.11
2018-05-24T04:58:58.576Z,87.11
2018-05-24T04:59:58.580Z,87.40
2018-05-24T05:00:58.580Z,87.68
2018-05-24T05:01:58.579Z,87.98
2018-05-24T05:02:58.584Z,88.74
2018-05-24T05:04:20.476Z,88.55
2018-05-24T05:04:58.595Z,88.45
2018-05-24T05:06:00.246Z,88.93
2018-05-24T05:06:58.789Z,88.74
2018-05-24T05:07:59.680Z,87.98
2018-05-24T05:08:58.592Z,88.45
2018-05-24T05:10:19.603Z,88.93
2018-05-24T05:10:58.593Z,89.12
2018-05-24T05:11:58.597Z,88.93
2018-05-24T05:12:58.596Z,88.45
2018-05-24T05:13:58.632Z,88.45
2018-05-24T05:14:58.604Z,88.74
2018-05-24T05:16:19.659Z,89.03
2018-05-24T05:16:58.607Z,89.03
2018-05-24T05:17:58.606Z,89.51
2018-05-24T05:18:58.609Z,89.61
2018-05-24T05:19:58.610Z,89.61
2018-05-24T05:20:58.613Z,90.37
2018-05-24T05:22:19.619Z,90.47
2018-05-24T05:22:58.617Z,90.85
2018-05-24T05:23:58.615Z,90.95
2018-05-24T05:24:58.619Z,90.66
2018-05-24T05:25:58.616Z,90.85
2018-05-24T05:26:58.617Z,90.75
2018-05-24T05:28:19.636Z,91.05
2018-05-24T05:28:58.631Z,91.05
2018-05-24T05:29:58.624Z,91.05
2018-05-24T05:30:58.625Z,91.14
2018-05-24T05:31:58.624Z,91.42
2018-05-24T05:32:58.634Z,91.81
2018-05-24T05:34:19.643Z,90.95
2018-05-24T05:34:58.629Z,91.72
2018-05-24T05:35:58.653Z,92.00
2018-05-24T05:36:58.637Z,92.48
2018-05-24T05:37:58.658Z,92.10
2018-05-24T05:38:58.639Z,92.48
2018-05-24T05:40:19.648Z,92.48
2018-05-24T05:40:58.641Z,92.58
2018-05-24T05:41:58.644Z,91.86
2018-05-24T05:42:58.645Z,92.91
2018-05-24T05:43:58.646Z,92.72
2018-05-24T05:44:58.643Z,92.77
2018-05-24T05:46:19.761Z,93.30
2018-05-24T05:46:58.648Z,93.30
2018-05-24T05:47:58.648Z,93.59
2018-05-24T05:48:58.652Z,93.97
2018-05-24T05:49:58.657Z,93.97
2018-05-24T05:51:00.821Z,93.49
2018-05-24T05:52:19.736Z,93.68
2018-05-24T05:52:58.657Z,93.40
2018-05-24T05:53:58.657Z,93.88
2018-05-24T05:54:58.661Z,94.45
2018-05-24T05:55:58.658Z,94.54
2018-05-24T05:56:58.658Z,94.45
2018-05-24T05:58:19.668Z,94.64
2018-05-24T05:58:58.675Z,94.84
2018-05-24T05:59:58.663Z,94.93
2018-05-24T06:00:58.667Z,95.03
2018-05-24T06:01:58.693Z,95.31
2018-05-24T06:02:58.673Z,95.41
2018-05-24T06:04:19.683Z,94.84
2018-05-24T06:04:58.685Z,94.84
2018-05-24T06:05:58.675Z,94.45
2018-05-24T06:06:58.702Z,94.45
2018-05-24T06:07:58.677Z,94.64
2018-05-24T06:08:58.676Z,94.64
2018-05-24T06:10:19.685Z,94.35
2018-05-24T06:10:58.676Z,94.79
2018-05-24T06:11:58.677Z,94.54
2018-05-24T06:12:58.676Z,94.35
2018-05-24T06:13:58.823Z,93.78
2018-05-24T06:14:58.680Z,92.91
2018-05-24T06:16:19.772Z,93.44
2018-05-24T06:16:58.686Z,93.40
2018-05-24T06:17:58.689Z,93.15
2018-05-24T06:18:58.685Z,93.25
2018-05-24T06:19:58.688Z,92.00
2018-05-24T06:20:58.687Z,92.10
2018-05-24T06:22:19.699Z,92.29
2018-05-24T06:22:58.701Z,91.91
2018-05-24T06:23:58.695Z,91.24
2018-05-24T06:24:58.696Z,91.24
2018-05-24T06:25:58.696Z,90.95
2018-05-24T06:26:58.695Z,91.14
2018-05-24T06:28:19.722Z,90.37
2018-05-24T06:28:58.717Z,90.85
2018-05-24T06:29:58.698Z,90.56
2018-05-24T06:30:58.703Z,90.66
2018-05-24T06:31:58.702Z,90.85
2018-05-24T06:32:58.705Z,90.80
2018-05-24T06:34:19.719Z,90.80
2018-05-24T06:34:58.707Z,90.70
2018-05-24T06:35:58.707Z,90.52
2018-05-24T06:36:58.709Z,90.80
2018-05-24T06:37:58.719Z,90.80
2018-05-24T06:38:58.868Z,90.61
2018-05-24T06:40:19.726Z,89.84
2018-05-24T06:40:58.723Z,89.84
2018-05-24T06:41:58.718Z,89.65
2018-05-24T06:42:58.720Z,89.26
2018-05-24T06:43:59.183Z,88.49
2018-05-24T06:44:58.753Z,89.36
2018-05-24T06:46:19.826Z,88.79
2018-05-24T06:46:58.726Z,88.02
2018-05-24T06:47:58.732Z,87.73
2018-05-24T06:48:58.726Z,87.73
2018-05-24T06:49:58.732Z,87.82
2018-05-24T06:50:58.746Z,87.73
2018-05-24T06:52:19.759Z,87.39
2018-05-24T06:52:58.742Z,87.49
2018-05-24T06:53:58.754Z,86.81
2018-05-24T06:54:58.777Z,87.29
2018-05-24T06:55:58.742Z,86.91
2018-05-24T06:56:58.743Z,87.29
2018-05-24T06:58:19.754Z,87.01
2018-05-24T06:58:58.746Z,85.85
2018-05-24T06:59:58.884Z,86.81
2018-05-24T07:00:58.811Z,86.24
2018-05-24T07:01:58.803Z,85.85
2018-05-24T07:02:59.082Z,85.75
2018-05-24T07:04:19.774Z,85.37
2018-05-24T07:04:58.766Z,85.75
2018-05-24T07:05:58.794Z,85.85
2018-05-24T07:06:58.781Z,85.66
2018-05-24T07:07:58.795Z,85.75
2018-05-24T07:08:58.775Z,86.52
2018-05-24T07:10:19.777Z,86.62
2018-05-24T07:10:59.207Z,86.62
2018-05-24T07:11:58.773Z,85.75
2018-05-24T07:12:58.778Z,85.47
2018-05-24T07:13:58.777Z,85.95
2018-05-24T07:14:58.784Z,85.57
2018-05-24T07:16:19.860Z,86.14
2018-05-24T07:16:58.785Z,85.75
2018-05-24T07:17:58.790Z,86.43
2018-05-24T07:18:58.791Z,86.72
2018-05-24T07:19:58.793Z,86.52
2018-05-24T07:20:58.801Z,85.57
2018-05-24T07:22:20.485Z,86.33
2018-05-24T07:22:58.807Z,86.52
2018-05-24T07:23:58.800Z,86.43
2018-05-24T07:24:58.802Z,86.52
2018-05-24T07:25:58.808Z,85.91
2018-05-24T07:26:58.809Z,86.10
2018-05-24T07:28:19.816Z,86.38
2018-05-24T07:28:58.824Z,86.38
2018-05-24T07:29:58.822Z,86.77
2018-05-24T07:30:58.815Z,86.29
2018-05-24T07:31:58.819Z,86.00
2018-05-24T07:32:58.819Z,86.10
2018-05-24T07:34:19.946Z,86.38
2018-05-24T07:34:58.831Z,86.68
2018-05-24T07:35:59.345Z,86.29
2018-05-24T07:36:59.547Z,86.58
2018-05-24T07:37:58.957Z,86.19
2018-05-24T07:39:00.024Z,85.42
2018-05-24T07:40:20.183Z,85.91
2018-05-24T07:40:58.844Z,86.29
2018-05-24T07:41:58.935Z,86.19
2018-05-24T07:42:58.844Z,85.37
2018-05-24T07:43:58.842Z,85.37
2018-05-24T07:44:58.887Z,84.60
2018-05-24T07:46:19.891Z,84.51
2018-05-24T07:46:58.853Z,84.89
2018-05-24T07:47:58.850Z,85.66
2018-05-24T07:48:58.848Z,85.18
2018-05-24T07:49:58.866Z,84.03
2018-05-24T07:50:58.854Z,84.03
2018-05-24T07:52:19.862Z,83.93
2018-05-24T07:52:58.859Z,83.54
2018-05-24T07:53:58.865Z,83.26
2018-05-24T07:54:58.860Z,83.45
2018-05-24T07:55:58.864Z,83.93
2018-05-24T07:56:58.866Z,84.41
2018-05-24T07:58:19.913Z,84.41
2018-05-24T07:58:58.872Z,83.93
2018-05-24T07:59:58.871Z,83.93
2018-05-24T08:00:58.869Z,83.54
2018-05-24T08:01:59.210Z,84.03
2018-05-24T08:02:58.876Z,83.07
2018-05-24T08:04:19.890Z,83.64
2018-05-24T08:04:58.879Z,83.64
2018-05-24T08:05:58.889Z,83.98
2018-05-24T08:06:58.883Z,84.18
2018-05-24T08:07:58.886Z,84.37
2018-05-24T08:08:58.887Z,83.60
2018-05-24T08:10:19.900Z,83.80
2018-05-24T08:10:59.148Z,83.98
2018-05-24T08:11:58.895Z,83.70
2018-05-24T08:12:59.133Z,83.98
2018-05-24T08:13:58.897Z,83.51
2018-05-24T08:14:58.899Z,84.27
2018-05-24T08:16:19.963Z,83.60
2018-05-24T08:16:58.909Z,84.08
2018-05-24T08:17:58.913Z,83.89
2018-05-24T08:18:58.913Z,84.18
2018-05-24T08:19:58.909Z,84.08
2018-05-24T08:20:58.908Z,84.60
2018-05-24T08:22:19.924Z,84.31
2018-05-24T08:22:58.920Z,84.03
2018-05-24T08:23:58.912Z,84.03
2018-05-24T08:24:59.249Z,84.12
2018-05-24T08:25:58.917Z,83.54
2018-05-24T08:26:58.924Z,83.26
2018-05-24T08:28:19.933Z,82.87
2018-05-24T08:28:58.925Z,83.16
2018-05-24T08:29:58.926Z,83.26
2018-05-24T08:30:58.933Z,82.59
2018-05-24T08:31:58.939Z,82.78
2018-05-24T08:32:58.931Z,82.20
2018-05-24T08:34:19.943Z,82.68
2018-05-24T08:34:58.948Z,82.78
2018-05-24T08:35:59.007Z,82.34
2018-05-24T08:36:58.944Z,82.82
2018-05-24T08:37:58.946Z,82.53
2018-05-24T08:38:58.971Z,81.96
2018-05-24T08:40:20.011Z,82.01
2018-05-24T08:40:59.114Z,81.53
2018-05-24T08:41:58.960Z,81.43
2018-05-24T08:42:58.961Z,82.10
2018-05-24T08:43:58.953Z,81.57
2018-05-24T08:44:58.997Z,81.34
2018-05-24T08:46:20.069Z,81.38
2018-05-24T08:46:58.986Z,82.30
2018-05-24T08:47:58.964Z,81.57
2018-05-24T08:48:58.966Z,81.34
2018-05-24T08:49:58.967Z,82.30
2018-05-24T08:50:58.970Z,82.01
2018-05-24T08:52:19.982Z,82.01
2018-05-24T08:52:58.977Z,82.20
2018-05-24T08:53:59.040Z,81.82
2018-05-24T08:54:58.983Z,81.53
2018-05-24T08:55:58.996Z,81.53
2018-05-24T08:56:58.990Z,81.24
2018-05-24T08:58:19.998Z,81.72
2018-05-24T08:58:59.039Z,82.30
2018-05-24T08:59:59.053Z,81.53
2018-05-24T09:00:58.996Z,82.01
2018-05-24T09:01:58.995Z,81.63
2018-05-24T09:02:58.996Z,82.20
2018-05-24T09:04:20.015Z,81.92
2018-05-24T09:04:58.999Z,81.92
2018-05-24T09:05:59.012Z,82.10
2018-05-24T09:06:59.006Z,81.92
2018-05-24T09:07:59.344Z,81.53
2018-05-24T09:08:59.133Z,81.53
2018-05-24T09:10:20.022Z,81.63
2018-05-24T09:10:59.992Z,82.10
2018-05-24T09:11:59.016Z,82.10
2018-05-24T09:12:59.033Z,81.92
2018-05-24T09:13:59.244Z,82.30
2018-05-24T09:14:59.048Z,82.49
2018-05-24T09:16:20.072Z,82.40
2018-05-24T09:16:59.033Z,82.49
2018-05-24T09:17:59.029Z,81.92
2018-05-24T09:18:59.023Z,82.59
2018-05-24T09:19:59.031Z,81.92
2018-05-24T09:20:59.041Z,82.20
2018-05-24T09:22:20.048Z,81.53
2018-05-24T09:22:59.061Z,82.15
2018-05-24T09:23:59.062Z,82.34
2018-05-24T09:24:59.039Z,81.76
2018-05-24T09:25:59.067Z,82.15
2018-05-24T09:26:59.073Z,81.67
2018-05-24T09:28:20.144Z,81.48
2018-05-24T09:28:59.416Z,81.19
2018-05-24T09:29:59.496Z,81.67
2018-05-24T09:30:59.072Z,81.28
2018-05-24T09:31:59.054Z,80.61
2018-05-24T09:32:59.061Z,80.99
2018-05-24T09:34:20.128Z,80.61
2018-05-24T09:34:59.156Z,80.22
2018-05-24T09:35:59.099Z,80.27
2018-05-24T09:36:59.069Z,80.84
2018-05-24T09:37:59.077Z,79.98
2018-05-24T09:38:59.184Z,80.07
2018-05-24T09:40:20.132Z,79.98
2018-05-24T09:41:00.013Z,79.98
2018-05-24T09:42:01.941Z,80.17
2018-05-24T09:42:59.088Z,80.27
2018-05-24T09:43:59.130Z,80.36
2018-05-24T09:44:59.095Z,80.36
2018-05-24T09:46:20.352Z,80.17
2018-05-24T09:46:59.116Z,80.17
2018-05-24T09:47:59.404Z,80.17
2018-05-24T09:48:59.305Z,79.98
2018-05-24T09:49:59.184Z,79.98
2018-05-24T09:50:59.109Z,80.11
2018-05-24T09:52:20.141Z,80.17
2018-05-24T09:52:59.116Z,80.46
2018-05-24T09:53:59.183Z,80.07
2018-05-24T09:54:59.115Z,80.46
2018-05-24T09:55:59.166Z,81.65
2018-05-24T09:56:59.155Z,81.23
2018-05-24T09:58:20.139Z,81.42
2018-05-24T09:59:00.548Z,80.84
2018-05-24T09:59:59.360Z,81.65
2018-05-24T10:01:00.314Z,81.61
2018-05-24T10:01:59.367Z,81.42
2018-05-24T10:02:59.133Z,81.61
2018-05-24T10:04:20.159Z,82.38
2018-05-24T10:04:59.134Z,82.61
2018-05-24T10:05:59.238Z,82.71
2018-05-24T10:06:59.139Z,82.90
2018-05-24T10:07:59.141Z,82.14
2018-05-24T10:08:59.491Z,82.90
2018-05-24T10:10:20.190Z,82.81
2018-05-24T10:10:59.158Z,83.48
2018-05-24T10:11:59.682Z,83.19
2018-05-24T10:13:00.194Z,83.19
2018-05-24T10:13:59.160Z,84.16
2018-05-24T10:14:59.167Z,83.67
2018-05-24T10:16:20.327Z,84.34
2018-05-24T10:16:59.165Z,84.16
2018-05-24T10:17:59.173Z,85.17
2018-05-24T10:18:59.170Z,85.69
2018-05-24T10:19:59.175Z,85.46
2018-05-24T10:20:59.193Z,85.94
2018-05-24T10:22:20.234Z,86.71
2018-05-24T10:22:59.292Z,86.22
2018-05-24T10:24:00.512Z,86.71
2018-05-24T10:25:00.366Z,87.19
2018-05-24T10:25:59.198Z,87.96
2018-05-24T10:26:59.214Z,87.86
2018-05-24T10:28:20.220Z,87.96
2018-05-24T10:29:00.140Z,88.24
2018-05-24T10:29:59.205Z,88.24
2018-05-24T10:30:59.204Z,89.01
2018-05-24T10:31:59.204Z,88.63
2018-05-24T10:32:59.214Z,88.87
2018-05-24T10:34:20.420Z,89.36
2018-05-24T10:34:59.212Z,89.74
2018-05-24T10:35:59.263Z,89.54
2018-05-24T10:36:59.220Z,89.74
2018-05-24T10:37:59.223Z,89.54
2018-05-24T10:38:59.544Z,90.12
2018-05-24T10:40:20.238Z,90.22
2018-05-24T10:40:59.690Z,90.99
2018-05-24T10:41:59.231Z,91.18
2018-05-24T10:42:59.282Z,90.80
2018-05-24T10:43:59.240Z,90.60
2018-05-24T10:44:59.286Z,91.13
2018-05-24T10:46:20.354Z,91.81
2018-05-24T10:46:59.239Z,92.29
2018-05-24T10:47:59.253Z,92.48
2018-05-24T10:48:59.277Z,93.19
2018-05-24T10:49:59.371Z,93.05
2018-05-24T10:50:59.295Z,93.25
2018-05-24T10:52:21.759Z,93.44
2018-05-24T10:52:59.251Z,93.63
2018-05-24T10:53:59.313Z,93.44
2018-05-24T10:54:59.258Z,94.88
2018-05-24T10:55:59.306Z,94.69
2018-05-24T10:56:59.261Z,94.88
2018-05-24T10:58:20.279Z,95.17
2018-05-24T10:58:59.270Z,94.69
2018-05-24T10:59:59.390Z,95.17
2018-05-24T11:00:59.322Z,94.88
2018-05-24T11:02:00.138Z,95.55
2018-05-24T11:02:59.373Z,95.65
2018-05-24T11:04:20.372Z,95.07
2018-05-24T11:04:59.284Z,96.22
2018-05-24T11:05:59.281Z,96.42
2018-05-24T11:07:00.126Z,96.22
2018-05-24T11:07:59.283Z,96.42
2018-05-24T11:08:59.294Z,97.38
2018-05-24T11:10:20.306Z,97.09
2018-05-24T11:10:59.291Z,96.89
2018-05-24T11:11:59.288Z,97.38
2018-05-24T11:12:59.293Z,96.70
2018-05-24T11:13:59.294Z,96.42
2018-05-24T11:14:59.293Z,96.51
2018-05-24T11:16:20.338Z,96.51
2018-05-24T11:16:59.316Z,96.89
2018-05-24T11:17:59.345Z,96.51
2018-05-24T11:18:59.307Z,96.42
2018-05-24T11:19:59.305Z,96.51
2018-05-24T11:20:59.364Z,96.51
2018-05-24T11:22:20.485Z,97.19
2018-05-24T11:22:59.315Z,96.61
2018-05-24T11:23:59.846Z,97.47
2018-05-24T11:24:59.320Z,97.47
2018-05-24T11:25:59.321Z,97.19
2018-05-24T11:26:59.475Z,97.19
2018-05-24T11:28:20.339Z,97.47
2018-05-24T11:28:59.326Z,97.52
2018-05-24T11:29:59.340Z,97.91
2018-05-24T11:30:59.399Z,98.10
2018-05-24T11:31:59.391Z,98.58
2018-05-24T11:32:59.332Z,98.29
2018-05-24T11:34:20.345Z,99.05
2018-05-24T11:34:59.332Z,98.96
2018-05-24T11:35:59.569Z,98.48
2018-05-24T11:36:59.399Z,98.29
2018-05-24T11:37:59.340Z,99.05
2018-05-24T11:38:59.343Z,98.77
2018-05-24T11:40:20.354Z,98.96
2018-05-24T11:40:59.348Z,99.58
2018-05-24T11:41:59.347Z,99.77
2018-05-24T11:42:59.384Z,99.68
2018-05-24T11:43:59.355Z,99.68
2018-05-24T11:44:59.363Z,99.99
2018-05-24T11:46:20.419Z,99.77
2018-05-24T11:46:59.369Z,99.99
2018-05-24T11:48:02.140Z,99.99
2018-05-24T11:48:59.538Z,99.99
2018-05-24T11:50:01.116Z,99.99
2018-05-24T11:50:59.447Z,99.96
2018-05-24T11:52:21.598Z,99.99
2018-05-24T11:52:59.436Z,99.99
2018-05-24T11:53:59.466Z,99.99
2018-05-24T11:54:59.369Z,99.96
2018-05-24T11:55:59.408Z,99.99
2018-05-24T11:56:59.377Z,99.99
2018-05-24T11:58:20.376Z,99.99
2018-05-24T11:58:59.374Z,99.99
2018-05-24T11:59:59.379Z,99.99
2018-05-24T12:00:59.394Z,99.99
2018-05-24T12:01:59.385Z,99.99
2018-05-24T12:02:59.378Z,99.99
2018-05-24T12:04:20.388Z,99.99
2018-05-24T12:04:59.661Z,99.99
2018-05-24T12:05:59.460Z,99.99
2018-05-24T12:06:59.411Z,99.99
2018-05-24T12:07:59.385Z,99.99
2018-05-24T12:08:59.400Z,99.99
2018-05-24T12:10:20.401Z,99.99
2018-05-24T12:10:59.401Z,99.99
2018-05-24T12:11:59.403Z,99.99
2018-05-24T12:12:59.391Z,99.99
2018-05-24T12:13:59.400Z,99.99
2018-05-24T12:14:59.398Z,99.99
2018-05-24T12:16:20.462Z,99.99
2018-05-24T12:16:59.398Z,99.99
2018-05-24T12:17:59.399Z,99.99
2018-05-24T12:18:59.436Z,99.99
2018-05-24T12:19:59.402Z,99.99
2018-05-24T12:21:00.145Z,99.99
2018-05-24T12:22:23.147Z,99.99
2018-05-24T12:22:59.700Z,99.99
2018-05-24T12:23:59.416Z,99.99
2018-05-24T12:24:59.433Z,99.99
2018-05-24T12:25:59.413Z,99.99
2018-05-24T12:26:59.417Z,99.99
2018-05-24T12:28:20.422Z,99.99
2018-05-24T12:28:59.841Z,99.99
2018-05-24T12:29:59.433Z,99.99
2018-05-24T12:30:59.419Z,99.99
2018-05-24T12:31:59.534Z,99.99
2018-05-24T12:32:59.579Z,99.99
2018-05-24T12:34:20.433Z,99.99
2018-05-24T12:34:59.423Z,99.99
2018-05-24T12:35:59.847Z,99.99
2018-05-24T12:36:59.428Z,99.99
2018-05-24T12:38:00.169Z,99.99
2018-05-24T12:39:00.032Z,99.99
2018-05-24T12:40:20.441Z,99.99
2018-05-24T12:40:59.445Z,99.99
2018-05-24T12:41:59.434Z,99.99
2018-05-24T12:42:59.434Z,99.99
2018-05-24T12:43:59.440Z,99.99
2018-05-24T12:44:59.437Z,99.99
2018-05-24T12:46:20.473Z,99.99
2018-05-24T12:46:59.444Z,99.99
2018-05-24T12:47:59.450Z,99.92
2018-05-24T12:48:59.536Z,99.99
2018-05-24T12:49:59.456Z,99.99
2018-05-24T12:50:59.453Z,99.54
2018-05-24T12:52:20.565Z,99.99
2018-05-24T12:52:59.451Z,99.54
2018-05-24T12:53:59.451Z,99.20